createdAt,value
2019-04-26T00:00:45.018Z,88.16
2019-04-26T00:03:16.096Z,88.13
2019-04-26T00:05:44.935Z,88.32
2019-04-26T00:08:13.836Z,87.90
2019-04-26T00:10:56.239Z,88.00
2019-04-26T00:13:53.250Z,87.73
2019-04-26T00:16:32.493Z,87.51
2019-04-26T00:19:01.444Z,87.50
2019-04-26T00:21:30.347Z,87.42
2019-04-26T00:23:59.371Z,87.60
2019-04-26T00:26:28.223Z,87.85
2019-04-26T00:28:57.152Z,87.37
2019-04-26T00:31:26.091Z,87.64
2019-04-26T00:33:54.987Z,87.97
2019-04-26T00:36:23.899Z,88.29
2019-04-26T00:38:52.894Z,88.25
2019-04-26T00:41:22.672Z,88.38
2019-04-26T00:43:50.688Z,88.60
2019-04-26T00:46:19.608Z,88.31
2019-04-26T00:48:48.602Z,88.76
2019-04-26T00:51:17.543Z,88.65
2019-04-26T00:53:46.477Z,89.06
2019-04-26T00:56:15.921Z,89.02
2019-04-26T00:58:44.325Z,86.74
2019-04-26T01:01:13.221Z,88.17
2019-04-26T01:03:42.134Z,88.50
2019-04-26T01:06:11.076Z,88.54
2019-04-26T01:08:39.990Z,88.46
2019-04-26T01:11:08.956Z,88.59
2019-04-26T01:13:37.866Z,88.53
2019-04-26T01:16:06.822Z,88.41
2019-04-26T01:18:35.716Z,87.39
2019-04-26T01:21:04.634Z,87.13
2019-04-26T01:23:33.898Z,86.51
2019-04-26T01:26:05.255Z,86.20
2019-04-26T01:28:35.587Z,86.10
2019-04-26T01:31:04.497Z,85.85
2019-04-26T01:33:33.402Z,85.67
2019-04-26T01:36:12.457Z,85.93
2019-04-26T01:38:31.905Z,85.42
2019-04-26T01:41:02.024Z,83.47
2019-04-26T01:43:43.432Z,84.84
2019-04-26T01:46:15.994Z,85.36
2019-04-26T01:48:55.096Z,85.41
2019-04-26T01:51:28.792Z,85.40
2019-04-26T01:53:57.581Z,85.31
2019-04-26T01:56:27.607Z,85.22
2019-04-26T01:58:56.587Z,85.01
2019-04-26T02:01:37.517Z,84.96
2019-04-26T02:04:06.496Z,84.94
2019-04-26T02:06:35.424Z,84.64
2019-04-26T02:09:05.890Z,85.01
2019-04-26T02:11:34.802Z,85.03
2019-04-26T02:14:03.717Z,84.91
2019-04-26T02:16:33.315Z,84.49
2019-04-26T02:19:01.559Z,84.74
2019-04-26T02:21:34.286Z,84.82
2019-04-26T02:24:09.917Z,84.67
2019-04-26T02:26:40.051Z,84.60
2019-04-26T02:29:11.131Z,84.24
2019-04-26T02:31:40.042Z,82.25
2019-04-26T02:34:08.923Z,83.74
2019-04-26T02:36:56.431Z,84.03
2019-04-26T02:39:20.109Z,84.35
2019-04-26T02:41:50.046Z,84.22
2019-04-26T02:44:21.775Z,84.05
2019-04-26T02:46:55.248Z,84.16
2019-04-26T02:49:29.291Z,84.56
2019-04-26T02:52:10.250Z,84.81
2019-04-26T02:54:45.834Z,84.97
2019-04-26T02:57:34.352Z,85.12
2019-04-26T03:00:06.541Z,85.07
2019-04-26T03:02:37.258Z,85.03
2019-04-26T03:05:05.938Z,84.93
2019-04-26T03:07:52.976Z,85.29
2019-04-26T03:10:23.683Z,85.07
2019-04-26T03:12:52.593Z,84.58
2019-04-26T03:15:40.680Z,84.60
2019-04-26T03:18:27.193Z,84.88
2019-04-26T03:20:58.882Z,84.86
2019-04-26T03:23:56.228Z,85.04
2019-04-26T03:26:27.513Z,85.26
2019-04-26T03:29:10.210Z,84.92
2019-04-26T03:31:53.857Z,84.70
2019-04-26T03:34:21.336Z,84.86
2019-04-26T03:37:21.098Z,85.01
2019-04-26T03:40:04.387Z,84.46
2019-04-26T03:42:53.313Z,82.33
2019-04-26T03:45:55.562Z,83.59
2019-04-26T03:48:39.458Z,83.54
2019-04-26T03:51:12.198Z,84.08
2019-04-26T03:53:54.201Z,83.63
2019-04-26T03:57:13.976Z,83.61
2019-04-26T04:00:12.295Z,83.28
2019-04-26T04:03:08.449Z,82.86
2019-04-26T04:05:43.571Z,83.39
2019-04-26T04:08:11.508Z,83.42
2019-04-26T04:10:47.663Z,82.99
2019-04-26T04:13:40.841Z,83.14
2019-04-26T04:16:18.474Z,83.25
2019-04-26T04:18:49.276Z,82.85
2019-04-26T04:21:27.517Z,82.92
2019-04-26T04:24:10.161Z,82.73
2019-04-26T04:26:53.577Z,82.99
2019-04-26T04:29:54.528Z,83.65
2019-04-26T04:32:25.147Z,83.17
2019-04-26T04:34:54.133Z,83.22
2019-04-26T04:37:23.079Z,83.40
2019-04-26T04:40:07.854Z,83.08
2019-04-26T04:43:16.094Z,83.41
2019-04-26T04:46:06.072Z,83.71
2019-04-26T04:49:05.937Z,83.84
2019-04-26T04:52:11.222Z,84.10
2019-04-26T04:54:41.544Z,83.75
2019-04-26T04:57:31.487Z,83.36
2019-04-26T05:00:24.303Z,83.54
2019-04-26T05:03:05.002Z,83.86
2019-04-26T05:06:22.836Z,81.93
2019-04-26T05:08:57.980Z,83.33
2019-04-26T05:11:44.934Z,82.97
2019-04-26T05:14:24.961Z,83.02
2019-04-26T05:17:13.903Z,83.04
2019-04-26T05:20:06.876Z,83.09
2019-04-26T05:23:09.317Z,83.15
2019-04-26T05:27:15.417Z,83.30
2019-04-26T05:30:00.035Z,81.35
2019-04-26T05:33:09.585Z,83.49
2019-04-26T05:36:01.329Z,81.24
2019-04-26T05:38:43.750Z,82.85
2019-04-26T05:41:43.969Z,83.29
2019-04-26T05:44:32.602Z,83.76
2019-04-26T05:47:28.209Z,83.29
2019-04-26T05:50:39.164Z,83.37
2019-04-26T05:54:05.091Z,80.76
2019-04-26T05:56:56.264Z,82.52
2019-04-26T05:59:32.317Z,81.98
2019-04-26T06:02:56.826Z,82.12
2019-04-26T06:05:52.310Z,82.12
2019-04-26T06:08:38.383Z,82.18
2019-04-26T06:11:11.625Z,80.17
2019-04-26T06:14:36.822Z,81.73
2019-04-26T06:17:46.396Z,81.95
2019-04-26T06:20:51.151Z,82.13
2019-04-26T06:23:53.841Z,82.28
2019-04-26T06:26:52.816Z,82.29
2019-04-26T06:29:26.382Z,82.10
2019-04-26T06:32:00.492Z,82.32
2019-04-26T06:34:40.593Z,81.61
2019-04-26T06:37:37.154Z,81.73
2019-04-26T06:40:21.927Z,82.24
2019-04-26T06:43:17.661Z,81.80
2019-04-26T06:46:20.493Z,81.18
2019-04-26T06:49:45.779Z,81.38
2019-04-26T06:52:16.179Z,81.65
2019-04-26T06:55:02.576Z,80.84
2019-04-26T06:58:07.237Z,78.07
2019-04-26T07:00:47.792Z,79.74
2019-04-26T07:03:35.108Z,77.30
2019-04-26T07:06:04.623Z,78.63
2019-04-26T07:08:42.097Z,78.54
2019-04-26T07:12:11.672Z,78.45
2019-04-26T07:15:07.997Z,78.44
2019-04-26T07:17:59.257Z,78.29
2019-04-26T07:20:51.271Z,78.21
2019-04-26T07:24:14.562Z,76.65
2019-04-26T07:27:14.299Z,78.21
2019-04-26T07:30:10.410Z,78.49
2019-04-26T07:33:19.400Z,78.49
2019-04-26T07:36:41.655Z,77.69
2019-04-26T07:39:36.195Z,77.20
2019-04-26T07:42:48.344Z,76.31
2019-04-26T07:45:49.385Z,75.82
2019-04-26T07:48:27.724Z,76.73
2019-04-26T07:51:34.461Z,76.51
2019-04-26T07:54:41.372Z,73.88
2019-04-26T07:58:19.427Z,76.51
2019-04-26T08:00:57.352Z,73.85
2019-04-26T08:03:44.590Z,75.47
2019-04-26T08:06:20.090Z,75.82
2019-04-26T08:08:58.243Z,75.22
2019-04-26T08:11:42.891Z,73.67
2019-04-26T08:14:25.224Z,72.38
2019-04-26T08:17:25.958Z,70.68
2019-04-26T08:20:14.060Z,69.50
2019-04-26T08:22:46.933Z,68.73
2019-04-26T08:25:22.206Z,68.44
2019-04-26T08:27:57.418Z,68.26
2019-04-26T08:30:32.588Z,68.88
2019-04-26T08:33:07.499Z,69.42
2019-04-26T08:35:36.210Z,69.50
2019-04-26T08:38:13.624Z,69.01
2019-04-26T08:40:38.278Z,68.17
2019-04-26T08:43:27.231Z,66.18
2019-04-26T08:46:18.812Z,66.28
2019-04-26T08:49:23.944Z,66.60
2019-04-26T08:51:52.269Z,66.51
2019-04-26T08:54:22.941Z,65.99
2019-04-26T08:56:58.207Z,65.76
2019-04-26T08:59:27.803Z,65.94
2019-04-26T09:02:14.124Z,66.46
2019-04-26T09:05:09.704Z,67.72
2019-04-26T09:07:42.645Z,66.60
2019-04-26T09:10:13.950Z,62.81
2019-04-26T09:12:47.868Z,64.03
2019-04-26T09:15:21.766Z,65.34
2019-04-26T09:17:50.941Z,64.11
2019-04-26T09:20:28.647Z,60.92
2019-04-26T09:23:07.192Z,62.39
2019-04-26T09:25:41.986Z,63.49
2019-04-26T09:28:27.318Z,63.81
2019-04-26T09:31:19.588Z,63.23
2019-04-26T09:33:54.221Z,63.84
2019-04-26T09:36:28.322Z,64.63
2019-04-26T09:39:03.879Z,65.19
2019-04-26T09:41:40.912Z,63.35
2019-04-26T09:44:17.280Z,64.00
2019-04-26T09:47:05.179Z,64.38
2019-04-26T09:49:45.746Z,64.04
2019-04-26T09:52:18.475Z,63.95
2019-04-26T09:54:47.358Z,63.63
2019-04-26T09:57:18.429Z,61.42
2019-04-26T09:59:50.455Z,60.44
2019-04-26T10:02:35.345Z,60.39
2019-04-26T10:04:55.121Z,60.44
2019-04-26T10:07:24.361Z,59.68
2019-04-26T10:09:56.438Z,61.33
2019-04-26T10:12:38.749Z,61.56
2019-04-26T10:15:22.462Z,59.95
2019-04-26T10:17:52.712Z,59.09
2019-04-26T10:20:21.723Z,59.73
2019-04-26T10:22:53.299Z,58.48
2019-04-26T10:25:22.339Z,58.57
2019-04-26T10:27:51.414Z,57.69
2019-04-26T10:30:22.875Z,53.54
2019-04-26T10:32:51.969Z,53.20
2019-04-26T10:35:24.114Z,52.98
2019-04-26T10:37:57.579Z,53.09
2019-04-26T10:40:40.248Z,52.14
2019-04-26T10:43:15.996Z,53.57
2019-04-26T10:45:54.013Z,50.77
2019-04-26T10:48:19.512Z,50.80
2019-04-26T10:50:54.413Z,50.76
2019-04-26T10:53:46.724Z,52.96
2019-04-26T10:56:35.990Z,53.58
2019-04-26T10:59:31.879Z,54.65
2019-04-26T11:02:06.435Z,54.05
2019-04-26T11:04:41.503Z,54.58
2019-04-26T11:07:10.190Z,55.21
2019-04-26T11:09:46.061Z,55.61
2019-04-26T11:12:17.947Z,55.82
2019-04-26T11:14:53.234Z,54.18
2019-04-26T11:17:19.485Z,52.48
2019-04-26T11:19:50.950Z,50.83
2019-04-26T11:22:39.185Z,52.47
2019-04-26T11:25:08.630Z,53.96
2019-04-26T11:27:40.115Z,51.41
2019-04-26T11:30:12.924Z,48.58
2019-04-26T11:32:45.766Z,49.08
2019-04-26T11:35:13.518Z,49.49
2019-04-26T11:37:46.351Z,50.34
2019-04-26T11:40:14.587Z,49.49
2019-04-26T11:42:45.648Z,46.95
2019-04-26T11:45:14.567Z,49.02
2019-04-26T11:47:59.064Z,50.62
2019-04-26T11:50:22.417Z,51.19
2019-04-26T11:52:53.315Z,52.63
2019-04-26T11:55:29.701Z,50.95
2019-04-26T11:57:55.529Z,50.99
2019-04-26T12:00:36.601Z,50.64
2019-04-26T12:03:06.275Z,48.24
2019-04-26T12:05:55.907Z,49.93
2019-04-26T12:08:36.525Z,49.49
2019-04-26T12:11:18.283Z,49.50
2019-04-26T12:13:41.711Z,47.83
2019-04-26T12:16:25.424Z,47.20
2019-04-26T12:18:45.696Z,49.65
2019-04-26T12:21:19.382Z,50.10
2019-04-26T12:24:16.881Z,49.36
2019-04-26T12:26:51.977Z,48.03
2019-04-26T12:29:24.383Z,48.57
2019-04-26T12:32:01.926Z,48.63
2019-04-26T12:34:31.315Z,50.11
2019-04-26T12:37:02.686Z,49.70
2019-04-26T12:39:36.617Z,49.85
2019-04-26T12:42:13.906Z,49.69
2019-04-26T12:45:12.255Z,47.96
2019-04-26T12:47:52.249Z,47.46
2019-04-26T12:50:24.258Z,47.16
2019-04-26T12:52:55.845Z,46.25
2019-04-26T12:55:28.133Z,44.57
2019-04-26T12:58:11.019Z,44.23
2019-04-26T13:00:53.184Z,44.56
2019-04-26T13:03:20.137Z,45.40
2019-04-26T13:05:41.396Z,43.17
2019-04-26T13:08:17.008Z,42.78
2019-04-26T13:11:01.955Z,44.48
2019-04-26T13:14:02.228Z,43.74
2019-04-26T13:16:38.301Z,43.61
2019-04-26T13:19:08.793Z,43.54
2019-04-26T13:21:43.486Z,42.68
2019-04-26T13:24:15.247Z,41.07
2019-04-26T13:26:46.820Z,43.20
2019-04-26T13:29:15.890Z,40.96
2019-04-26T13:31:50.580Z,40.13
2019-04-26T13:34:19.602Z,43.18
2019-04-26T13:36:52.488Z,43.93
2019-04-26T13:39:22.810Z,42.87
2019-04-26T13:42:03.140Z,42.14
2019-04-26T13:44:48.498Z,43.49
2019-04-26T13:47:32.727Z,45.02
2019-04-26T13:50:26.640Z,44.63
2019-04-26T13:52:59.906Z,45.57
2019-04-26T13:55:34.545Z,46.15
2019-04-26T13:58:07.352Z,45.73
2019-04-26T14:00:39.780Z,46.02
2019-04-26T14:03:17.541Z,45.86
2019-04-26T14:05:50.880Z,45.71
2019-04-26T14:08:22.427Z,44.44
2019-04-26T14:10:54.110Z,44.56
2019-04-26T14:13:25.006Z,47.41
2019-04-26T14:15:55.755Z,45.93
2019-04-26T14:18:27.480Z,45.86
2019-04-26T14:20:59.014Z,45.89
2019-04-26T14:23:57.468Z,44.91
2019-04-26T14:26:39.819Z,45.14
2019-04-26T14:29:06.315Z,45.47
2019-04-26T14:31:39.208Z,47.05
2019-04-26T14:34:16.708Z,47.83
2019-04-26T14:36:49.248Z,46.76
2019-04-26T14:39:20.926Z,45.53
2019-04-26T14:41:57.088Z,44.32
2019-04-26T14:44:48.474Z,45.10
2019-04-26T14:47:14.965Z,41.38
2019-04-26T14:49:53.475Z,40.58
2019-04-26T14:52:40.080Z,40.89
2019-04-26T14:55:05.907Z,40.98
2019-04-26T14:57:46.730Z,39.64
2019-04-26T15:00:16.913Z,38.99
2019-04-26T15:02:56.105Z,39.08
2019-04-26T15:05:33.230Z,39.27
2019-04-26T15:08:03.737Z,40.19
2019-04-26T15:10:45.129Z,39.78
2019-04-26T15:13:19.965Z,40.01
2019-04-26T15:15:48.574Z,40.25
2019-04-26T15:18:22.485Z,40.70
2019-04-26T15:21:04.482Z,41.44
2019-04-26T15:23:36.014Z,41.55
2019-04-26T15:26:25.461Z,41.15
2019-04-26T15:28:55.051Z,41.67
2019-04-26T15:31:35.726Z,40.94
2019-04-26T15:34:08.990Z,40.61
2019-04-26T15:36:43.413Z,40.53
2019-04-26T15:39:26.220Z,39.66
2019-04-26T15:42:17.476Z,41.89
2019-04-26T15:45:07.884Z,41.53
2019-04-26T15:47:56.190Z,40.35
2019-04-26T15:50:41.017Z,40.18
2019-04-26T15:53:15.385Z,39.97
2019-04-26T15:55:54.278Z,39.37
2019-04-26T15:58:28.852Z,37.47
2019-04-26T16:01:10.907Z,36.73
2019-04-26T16:03:36.841Z,37.94
2019-04-26T16:06:08.851Z,38.76
2019-04-26T16:08:43.644Z,37.71
2019-04-26T16:11:14.768Z,37.89
2019-04-26T16:13:45.141Z,37.94
2019-04-26T16:16:20.711Z,37.69
2019-04-26T16:18:49.903Z,37.92
2019-04-26T16:21:20.166Z,38.43
2019-04-26T16:23:54.078Z,38.46
2019-04-26T16:26:18.039Z,38.01
2019-04-26T16:29:06.068Z,38.13
2019-04-26T16:31:46.066Z,38.82
2019-04-26T16:34:15.137Z,39.47
2019-04-26T16:36:45.401Z,40.07
2019-04-26T16:39:13.203Z,38.64
2019-04-26T16:41:42.193Z,38.16
2019-04-26T16:44:10.955Z,38.97
2019-04-26T16:46:39.811Z,38.81
2019-04-26T16:49:11.678Z,39.96
2019-04-26T16:51:37.660Z,39.84
2019-04-26T16:54:10.651Z,40.00
2019-04-26T16:56:36.009Z,39.32
2019-04-26T16:59:04.413Z,39.00
2019-04-26T17:01:33.514Z,39.27
2019-04-26T17:04:04.163Z,39.65
2019-04-26T17:06:31.181Z,40.58
2019-04-26T17:09:01.580Z,39.63
2019-04-26T17:11:30.254Z,39.41
2019-04-26T17:14:00.481Z,39.12
2019-04-26T17:16:29.545Z,38.68
2019-04-26T17:18:59.439Z,39.56
2019-04-26T17:21:25.684Z,40.80
2019-04-26T17:24:24.909Z,41.52
2019-04-26T17:27:14.683Z,42.00
2019-04-26T17:29:42.439Z,42.71
2019-04-26T17:32:13.857Z,42.96
2019-04-26T17:34:40.639Z,43.50
2019-04-26T17:37:14.327Z,43.17
2019-04-26T17:39:42.390Z,43.35
2019-04-26T17:42:12.245Z,43.77
2019-04-26T17:44:41.359Z,44.23
2019-04-26T17:47:10.713Z,44.40
2019-04-26T17:49:42.304Z,44.36
2019-04-26T17:52:08.275Z,44.85
2019-04-26T17:54:47.002Z,44.98
2019-04-26T17:57:12.677Z,45.28
2019-04-26T17:59:45.256Z,46.44
2019-04-26T18:02:19.697Z,48.14
2019-04-26T18:04:40.652Z,47.52
2019-04-26T18:07:33.858Z,48.36
2019-04-26T18:09:43.551Z,47.53
2019-04-26T18:12:05.708Z,48.01
2019-04-26T18:14:34.609Z,47.09
2019-04-26T18:17:20.245Z,47.71
2019-04-26T18:20:10.911Z,49.09
2019-04-26T18:22:53.706Z,49.19
2019-04-26T18:25:23.512Z,49.83
2019-04-26T18:27:53.530Z,50.31
2019-04-26T18:30:21.417Z,49.27
2019-04-26T18:32:50.463Z,50.06
2019-04-26T18:35:19.517Z,50.17
2019-04-26T18:37:48.492Z,49.85
2019-04-26T18:40:20.470Z,51.40
2019-04-26T18:42:46.810Z,50.74
2019-04-26T18:45:21.175Z,50.88
2019-04-26T18:47:45.342Z,50.59
2019-04-26T18:50:13.768Z,51.15
2019-04-26T18:52:52.665Z,50.80
2019-04-26T18:55:29.196Z,51.69
2019-04-26T18:57:55.126Z,52.03
2019-04-26T19:00:29.055Z,52.70
2019-04-26T19:02:59.877Z,53.00
2019-04-26T19:05:29.791Z,51.88
2019-04-26T19:07:54.961Z,53.29
2019-04-26T19:10:25.836Z,53.06
2019-04-26T19:12:56.360Z,53.66
2019-04-26T19:15:27.819Z,53.48
2019-04-26T19:18:13.719Z,53.91
2019-04-26T19:21:02.796Z,54.51
2019-04-26T19:23:30.021Z,55.22
2019-04-26T19:25:58.383Z,55.55
2019-04-26T19:28:27.322Z,57.22
2019-04-26T19:30:56.245Z,57.72
2019-04-26T19:33:25.157Z,57.48
2019-04-26T19:35:54.064Z,57.65
2019-04-26T19:38:22.951Z,57.92
2019-04-26T19:40:52.164Z,58.58
2019-04-26T19:43:30.274Z,59.44
2019-04-26T19:46:03.667Z,59.86
2019-04-26T19:48:44.818Z,59.98
2019-04-26T19:51:31.100Z,60.02
2019-04-26T19:54:14.154Z,59.84
2019-04-26T19:56:47.755Z,59.49
2019-04-26T19:59:16.671Z,59.40
2019-04-26T20:01:45.573Z,59.37
2019-04-26T20:04:14.461Z,59.51
2019-04-26T20:06:43.378Z,59.98
2019-04-26T20:09:13.639Z,59.88
2019-04-26T20:11:42.105Z,60.23
2019-04-26T20:14:10.110Z,60.22
2019-04-26T20:16:40.788Z,60.27
2019-04-26T20:19:11.930Z,60.57
2019-04-26T20:21:37.234Z,60.67
2019-04-26T20:24:06.100Z,61.13
2019-04-26T20:26:37.359Z,61.39
2019-04-26T20:29:06.232Z,61.62
2019-04-26T20:32:03.980Z,61.95
2019-04-26T20:34:32.871Z,62.13
2019-04-26T20:37:01.806Z,63.57
2019-04-26T20:39:31.990Z,65.13
2019-04-26T20:42:01.905Z,65.31
2019-04-26T20:44:46.023Z,64.93
2019-04-26T20:46:57.563Z,65.19
2019-04-26T20:49:26.447Z,64.95
2019-04-26T20:51:55.361Z,64.73
2019-04-26T20:54:24.271Z,64.56
2019-04-26T20:56:55.577Z,64.64
2019-04-26T20:59:23.634Z,64.39
2019-04-26T21:02:03.463Z,64.79
2019-04-26T21:04:34.900Z,65.09
2019-04-26T21:06:48.886Z,65.08
2019-04-26T21:09:17.731Z,65.05
2019-04-26T21:11:46.650Z,65.57
2019-04-26T21:14:15.567Z,65.08
2019-04-26T21:16:49.519Z,64.82
2019-04-26T21:19:19.117Z,65.48
2019-04-26T21:21:48.336Z,65.91
2019-04-26T21:24:13.400Z,66.28
2019-04-26T21:26:54.469Z,66.21
2019-04-26T21:29:52.504Z,66.80
2019-04-26T21:32:26.736Z,65.94
2019-04-26T21:34:54.106Z,65.95
2019-04-26T21:37:28.175Z,66.57
2019-04-26T21:40:01.189Z,66.64
2019-04-26T21:42:30.153Z,66.16
2019-04-26T21:44:59.140Z,66.75
2019-04-26T21:47:31.952Z,66.87
2019-04-26T21:49:58.815Z,67.21
2019-04-26T21:52:29.138Z,67.32
2019-04-26T21:54:56.350Z,67.70
2019-04-26T21:57:27.884Z,67.59
2019-04-26T21:59:54.022Z,67.89
2019-04-26T22:02:21.515Z,68.16
2019-04-26T22:04:50.427Z,67.78
2019-04-26T22:07:19.349Z,67.34
2019-04-26T22:09:56.337Z,66.58
2019-04-26T22:12:27.245Z,66.16
2019-04-26T22:15:01.044Z,66.29
2019-04-26T22:17:36.364Z,66.26
2019-04-26T22:20:24.134Z,66.48
2019-04-26T22:23:18.403Z,65.92
2019-04-26T22:25:48.991Z,65.32
2019-04-26T22:28:17.946Z,64.33
2019-04-26T22:30:46.878Z,62.31
2019-04-26T22:33:15.808Z,62.92
2019-04-26T22:35:44.699Z,63.05
2019-04-26T22:38:17.416Z,62.71
2019-04-26T22:40:43.690Z,62.64
2019-04-26T22:43:29.191Z,62.62
2019-04-26T22:46:07.466Z,63.04
2019-04-26T22:48:37.641Z,62.72
2019-04-26T22:51:06.556Z,63.08
2019-04-26T22:53:35.500Z,63.95
2019-04-26T22:56:05.018Z,64.40
2019-04-26T22:58:33.803Z,64.41
2019-04-26T23:01:03.336Z,65.19
2019-04-26T23:03:31.154Z,65.74
2019-04-26T23:06:00.075Z,65.72
2019-04-26T23:08:30.754Z,65.79
2019-04-26T23:10:57.899Z,65.39
2019-04-26T23:13:57.953Z,65.33
2019-04-26T23:17:05.775Z,64.78
2019-04-26T23:19:57.319Z,65.21
2019-04-26T23:22:30.786Z,65.00
2019-04-26T23:24:54.394Z,65.37
2019-04-26T23:27:23.698Z,65.20
2019-04-26T23:29:56.772Z,64.94
2019-04-26T23:32:20.141Z,65.19
2019-04-26T23:34:48.865Z,65.63
2019-04-26T23:37:19.323Z,65.88
2019-04-26T23:39:49.765Z,65.85
2019-04-26T23:42:16.436Z,65.87
2019-04-26T23:44:44.547Z,66.23
2019-04-26T23:47:21.070Z,66.24
2019-04-26T23:49:43.366Z,66.31
2019-04-26T23:52:14.539Z,66.44
2019-04-26T23:54:40.228Z,66.55
2019-04-26T23:57:09.186Z,66.40
2019-04-26T23:59:38.148Z,66.75
